Time;durP1;ratioP1;P1;durP2;ratioP2;P2;SDS_P1;SDS_P2;PMS_P1;PMS_P2;Temp;Humidity;BMP_temperature;BMP_pressure;BME280_temperature;BME280_humidity;BME280_pressure;Samples;Min_cycle;Max_cycle;Signal;HPM_P1;HPM_P2
2023/06/09 00:00:11;;;;;;;7.87;7.10;;;;;;;16.87;78.28;155695.69;5063672;28;20446;-85
2023/06/09 00:02:39;;;;;;;9.33;7.20;;;;;;;16.84;78.53;155689.19;5061100;28;20467;-85
2023/06/09 00:05:06;;;;;;;7.67;6.90;;;;;;;16.87;78.60;155695.69;5063451;28;20557;-85
2023/06/09 00:07:36;;;;;;;8.03;7.23;;;;;;;16.89;77.79;155702.19;5038421;28;20458;-85
2023/06/09 00:10:03;;;;;;;8.27;7.47;;;;;;;16.87;79.06;155695.69;5064506;28;20493;-85
2023/06/09 00:12:29;;;;;;;9.23;8.30;;;;;;;16.83;80.21;155685.31;5043220;28;20508;-85
2023/06/09 00:14:57;;;;;;;8.20;7.23;;;;;;;16.89;80.76;155702.19;5039581;28;20996;-85
2023/06/09 00:17:24;;;;;;;9.20;8.30;;;;;;;16.79;81.06;155674.88;5036728;28;20829;-85
2023/06/09 00:19:54;;;;;;;8.50;7.70;;;;;;;16.67;80.73;155644.97;5061868;28;20789;-85
2023/06/09 00:22:21;;;;;;;8.40;7.60;;;;;;;16.60;80.23;155626.72;5049499;28;20451;-85
2023/06/09 00:24:48;;;;;;;9.20;7.47;;;;;;;16.59;80.26;155624.16;5046588;28;20805;-85
2023/06/09 00:27:15;;;;;;;8.13;7.37;;;;;;;16.47;80.61;155592.88;5049580;28;20461;-85
2023/06/09 00:29:41;;;;;;;9.57;8.60;;;;;;;16.35;81.79;155561.66;5056035;28;20570;-85
2023/06/09 00:32:11;;;;;;;8.23;7.43;;;;;;;16.31;81.57;155551.25;5046773;28;20462;-85
2023/06/09 00:34:38;;;;;;;8.33;7.50;;;;;;;16.30;81.03;155549.97;5043815;28;21012;-85
2023/06/09 00:37:06;;;;;;;8.80;7.90;;;;;;;16.28;81.14;155544.75;5044313;28;20465;-85
2023/06/09 00:39:32;;;;;;;8.87;8.03;;;;;;;16.26;81.18;155539.56;5038296;28;21036;-84
2023/06/09 00:41:59;;;;;;;8.30;7.60;;;;;;;16.19;81.40;155520.03;5063171;28;20451;-85
2023/06/09 00:44:26;;;;;;;9.60;7.47;;;;;;;16.23;81.37;155530.47;5068645;28;21084;-85
2023/06/09 00:46:52;;;;;;;7.67;6.90;;;;;;;16.27;81.10;155540.84;5034403;28;20463;-85
2023/06/09 00:49:19;;;;;;;11.50;7.57;;;;;;;16.27;80.39;155540.84;5045013;28;20710;-84
2023/06/09 00:51:46;;;;;;;9.17;8.27;;;;;;;16.22;80.63;155529.16;5046485;28;20461;-84
2023/06/09 00:54:14;;;;;;;7.77;7.07;;;;;;;16.11;81.05;155500.56;5046596;28;20451;-84
2023/06/09 00:56:41;;;;;;;8.60;7.80;;;;;;;16.03;81.52;155478.44;5026897;28;21130;-84
2023/06/09 00:59:09;;;;;;;8.57;7.77;;;;;;;15.93;82.29;155453.75;5045197;28;20478;-85
2023/06/09 01:01:37;;;;;;;7.70;7.00;;;;;;;15.84;82.57;155431.63;5062400;28;20542;-84
2023/06/09 01:04:04;;;;;;;9.93;7.40;;;;;;;15.81;83.74;155423.81;5046972;28;20469;-84
2023/06/09 01:06:38;;;;;;;8.53;7.73;;;;;;;15.84;83.71;155431.63;5053667;28;20455;-84
2023/06/09 01:09:25;;;;;;;8.67;7.77;;;;;;;15.86;82.40;155435.50;5026695;28;20442;-84
2023/06/09 01:12:01;;;;;;;8.40;7.60;;;;;;;15.86;82.23;155435.50;5056318;28;20454;-84
2023/06/09 01:14:32;;;;;;;8.17;7.27;;;;;;;15.83;83.59;155429.03;5056581;28;20455;-84
2023/06/09 01:17:07;;;;;;;8.93;8.03;;;;;;;15.90;84.35;155444.63;5041868;28;20510;-84
2023/06/09 01:19:36;;;;;;;9.80;8.67;;;;;;;15.96;84.75;155460.25;5048309;28;20472;-84
2023/06/09 01:22:07;;;;;;;8.40;7.70;;;;;;;16.04;84.45;155482.38;5064121;28;20461;-84
2023/06/09 01:24:45;;;;;;;9.53;8.03;;;;;;;16.03;82.32;155478.44;5059854;28;20450;-84
2023/06/09 01:27:14;;;;;;;8.53;7.70;;;;;;;15.94;82.45;155456.31;5046136;28;20454;-84
2023/06/09 01:29:43;;;;;;;8.77;7.87;;;;;;;15.86;83.08;155434.25;5055841;28;20521;-84
2023/06/09 01:32:14;;;;;;;8.67;7.87;;;;;;;15.83;83.12;155429.03;5043692;28;20985;-84
2023/06/09 01:34:42;;;;;;;8.60;7.70;;;;;;;15.74;84.18;155405.66;5060141;28;20995;-84
2023/06/09 01:37:08;;;;;;;11.43;8.90;;;;;;;15.71;84.44;155397.84;5050149;28;20450;-84
2023/06/09 01:39:37;;;;;;;9.43;8.37;;;;;;;15.70;84.89;155395.22;5060710;28;20834;-84
2023/06/09 01:42:05;;;;;;;9.60;8.67;;;;;;;15.68;84.46;155388.72;5040528;28;20480;-84
2023/06/09 01:44:33;;;;;;;8.60;7.80;;;;;;;15.63;84.66;155377.03;5036035;28;20524;-84
2023/06/09 01:47:00;;;;;;;9.00;8.10;;;;;;;15.61;83.64;155371.84;5039763;28;20524;-84
2023/06/09 01:49:32;;;;;;;8.10;7.30;;;;;;;15.59;83.99;155366.66;5026767;28;20444;-84
2023/06/09 01:52:03;;;;;;;9.17;7.97;;;;;;;15.51;84.91;155344.56;5039452;28;20463;-84
2023/06/09 01:54:35;;;;;;;8.73;7.83;;;;;;;15.46;84.19;155332.81;5062508;28;20438;-84
2023/06/09 01:57:07;;;;;;;7.80;7.03;;;;;;;15.46;84.41;155332.81;5058683;28;20452;-84
2023/06/09 01:59:38;;;;;;;8.90;8.00;;;;;;;15.46;84.51;155332.81;5052776;28;21242;-84
2023/06/09 02:02:05;;;;;;;10.03;9.03;;;;;;;15.37;84.75;155309.41;5061769;28;20458;-84
2023/06/09 02:04:33;;;;;;;9.43;8.43;;;;;;;15.28;84.97;155286.00;5046428;28;20446;-84
2023/06/09 02:07:00;;;;;;;8.77;7.90;;;;;;;15.24;85.65;155276.94;5041995;28;20565;-84
2023/06/09 02:09:26;;;;;;;9.73;8.57;;;;;;;15.21;85.54;155267.81;5054064;28;20451;-84
2023/06/09 02:11:53;;;;;;;9.03;8.13;;;;;;;15.16;85.95;155256.13;5044465;28;21036;-84
2023/06/09 02:14:20;;;;;;;8.47;7.57;;;;;;;15.18;86.49;155260.00;5028849;28;20879;-84
2023/06/09 02:16:53;;;;;;;8.73;7.57;;;;;;;15.20;86.39;155265.19;5055532;28;20517;-84
2023/06/09 02:19:20;;;;;;;9.33;8.37;;;;;;;15.28;87.15;155286.00;5045736;28;20547;-84
2023/06/09 02:21:46;;;;;;;10.30;8.80;;;;;;;15.39;88.01;155313.28;5020400;28;20814;-84
2023/06/09 02:24:13;;;;;;;9.57;8.53;;;;;;;15.49;88.21;155340.63;5062004;28;20546;-84
2023/06/09 02:26:39;;;;;;;9.80;8.80;;;;;;;15.58;87.54;155364.03;5067884;28;20964;-84
2023/06/09 02:29:06;;;;;;;10.00;9.00;;;;;;;15.62;87.12;155374.41;5043846;28;20474;-84
2023/06/09 02:31:33;;;;;;;9.10;8.30;;;;;;;15.64;86.48;155379.66;5047766;28;20466;-84
2023/06/09 02:34:03;;;;;;;10.60;9.60;;;;;;;15.67;87.36;155386.16;5064867;28;20512;-84
2023/06/09 02:36:30;;;;;;;10.60;9.50;;;;;;;15.66;87.91;155384.84;5050988;28;20454;-84
2023/06/09 02:38:56;;;;;;;12.30;9.10;;;;;;;15.67;88.04;155387.41;5064486;28;20485;-84
2023/06/09 02:41:23;;;;;;;10.80;9.80;;;;;;;15.63;87.84;155377.03;5044887;28;20460;-83
2023/06/09 02:43:51;;;;;;;11.63;10.43;;;;;;;15.65;88.58;155382.22;5049812;28;20446;-83
2023/06/09 02:46:18;;;;;;;11.70;10.60;;;;;;;15.64;89.61;155378.34;5047445;28;22090;-84
2023/06/09 02:48:44;;;;;;;12.53;11.03;;;;;;;15.56;90.35;155358.84;5056684;28;20520;-83
2023/06/09 02:51:13;;;;;;;12.03;10.73;;;;;;;15.55;90.15;155356.25;5052647;28;20483;-83
2023/06/09 02:53:40;;;;;;;12.13;11.00;;;;;;;15.55;90.72;155356.25;5048682;28;21076;-83
2023/06/09 02:56:07;;;;;;;11.63;10.30;;;;;;;15.45;90.54;155330.19;5064284;28;20561;-84
2023/06/09 02:58:41;;;;;;;18.00;11.13;;;;;;;15.39;90.63;155314.59;5056413;28;20476;-83
2023/06/09 03:01:08;;;;;;;11.57;10.47;;;;;;;15.39;90.78;155314.59;5061876;28;20966;-83
2023/06/09 03:03:38;;;;;;;12.10;10.77;;;;;;;15.38;91.24;155310.72;5045810;28;20815;-84
2023/06/09 03:06:07;;;;;;;11.00;9.90;;;;;;;15.35;89.76;155302.91;5045133;28;20814;-83
2023/06/09 03:08:35;;;;;;;12.17;10.83;;;;;;;15.33;89.03;155297.72;5064972;28;20442;-84
2023/06/09 03:11:02;;;;;;;14.00;10.80;;;;;;;15.33;89.23;155297.72;5062798;28;20848;-83
2023/06/09 03:13:29;;;;;;;11.87;10.17;;;;;;;15.29;88.88;155288.63;5048460;28;20817;-83
2023/06/09 03:15:57;;;;;;;13.17;10.37;;;;;;;15.23;88.56;155273.00;5045908;28;20447;-84
2023/06/09 03:18:24;;;;;;;11.60;10.43;;;;;;;15.24;89.84;155276.94;5050806;28;20990;-83
2023/06/09 03:20:52;;;;;;;10.33;9.23;;;;;;;15.21;88.93;155267.81;5063227;28;20450;-83
2023/06/09 03:23:21;;;;;;;11.00;9.90;;;;;;;15.20;88.93;155265.19;5031592;28;20972;-83
2023/06/09 03:25:51;;;;;;;12.07;10.57;;;;;;;15.21;89.71;155267.81;5030641;28;21161;-83
2023/06/09 03:28:18;;;;;;;11.43;10.13;;;;;;;15.24;90.49;155275.63;5038904;28;20459;-83
2023/06/09 03:30:45;;;;;;;11.20;10.17;;;;;;;15.25;91.15;155278.19;5053177;28;20471;-83
2023/06/09 03:33:14;;;;;;;10.57;9.30;;;;;;;15.24;90.96;155275.63;5042933;28;20467;-83
2023/06/09 03:35:42;;;;;;;11.47;10.00;;;;;;;15.24;90.63;155275.63;5031442;28;20443;-83
2023/06/09 03:38:08;;;;;;;11.53;10.40;;;;;;;15.25;91.13;155279.50;5053496;28;20458;-83
2023/06/09 03:40:36;;;;;;;10.17;9.17;;;;;;;15.25;91.33;155278.19;5062562;28;20482;-83
2023/06/09 03:43:04;;;;;;;10.63;9.63;;;;;;;15.22;91.93;155270.44;5058765;28;20489;-83
2023/06/09 03:45:31;;;;;;;11.40;10.30;;;;;;;15.22;91.79;155270.44;5065898;28;20552;-83
2023/06/09 03:47:58;;;;;;;11.43;10.30;;;;;;;15.22;92.17;155271.69;5044698;28;20466;-83
2023/06/09 03:50:26;;;;;;;11.50;10.30;;;;;;;15.24;92.10;155275.63;5046641;28;20980;-83
2023/06/09 03:52:53;;;;;;;10.90;9.80;;;;;;;15.21;92.37;155267.81;5056894;28;20507;-83
2023/06/09 03:55:22;;;;;;;11.40;9.60;;;;;;;15.17;92.41;155257.41;5047969;28;20490;-83
2023/06/09 03:57:49;;;;;;;10.93;9.93;;;;;;;15.15;91.21;155252.22;5043699;28;20462;-84
2023/06/09 04:00:19;;;;;;;11.80;10.50;;;;;;;15.17;92.56;155258.72;5048750;28;20471;-83
2023/06/09 04:02:45;;;;;;;11.97;10.73;;;;;;;15.13;92.92;155247.03;5051086;28;20452;-84
2023/06/09 04:05:14;;;;;;;14.03;10.20;;;;;;;15.06;93.25;155228.84;5060123;28;20458;-84
2023/06/09 04:07:43;;;;;;;12.17;10.87;;;;;;;15.08;93.59;155234.03;5027591;28;20485;-84
2023/06/09 04:10:10;;;;;;;12.40;11.00;;;;;;;15.11;93.68;155241.84;5053193;28;20450;-83
2023/06/09 04:12:38;;;;;;;10.97;9.87;;;;;;;15.20;92.33;155265.19;5060241;28;20817;-83
2023/06/09 04:15:06;;;;;;;11.27;10.17;;;;;;;15.28;92.13;155286.00;5046442;28;20884;-83
2023/06/09 04:17:36;;;;;;;11.20;10.10;;;;;;;15.39;90.93;155314.59;5030480;28;20458;-84
2023/06/09 04:20:04;;;;;;;11.83;10.43;;;;;;;15.56;90.64;155358.84;5046020;28;20555;-84
2023/06/09 04:22:31;;;;;;;11.40;10.20;;;;;;;15.71;90.52;155396.53;5047635;28;20823;-84
2023/06/09 04:24:59;;;;;;;10.60;9.50;;;;;;;15.91;90.19;155448.56;5046500;28;20881;-84
2023/06/09 04:27:26;;;;;;;11.00;9.90;;;;;;;16.10;89.26;155496.63;5061196;28;21096;-84
2023/06/09 04:29:52;;;;;;;10.00;9.00;;;;;;;16.32;88.44;155553.84;5030115;28;20470;-84
2023/06/09 04:32:19;;;;;;;9.10;7.63;;;;;;;16.54;86.61;155609.84;5043391;28;20475;-84
2023/06/09 04:34:48;;;;;;;8.87;8.00;;;;;;;16.73;85.25;155660.53;5047884;28;20459;-84
2023/06/09 04:37:15;;;;;;;10.83;9.80;;;;;;;16.86;84.26;155694.41;5055273;28;20455;-84
2023/06/09 04:39:45;;;;;;;9.10;8.20;;;;;;;17.02;83.74;155736.00;5039856;28;20824;-83
2023/06/09 04:42:14;;;;;;;10.13;9.13;;;;;;;17.17;82.42;155772.47;5055902;28;20946;-84
2023/06/09 04:44:42;;;;;;;9.47;8.60;;;;;;;17.30;81.19;155806.28;5021970;28;20451;-84
2023/06/09 04:47:10;;;;;;;11.07;9.70;;;;;;;17.37;80.23;155825.81;5059885;28;20555;-84
2023/06/09 04:49:37;;;;;;;8.93;8.03;;;;;;;17.32;80.61;155811.50;5042922;28;20451;-84
2023/06/09 04:52:07;;;;;;;12.63;10.13;;;;;;;17.37;80.11;155824.50;5047505;28;20449;-84
2023/06/09 04:54:35;;;;;;;10.40;9.40;;;;;;;17.41;79.80;155836.25;5060542;28;20902;-84
2023/06/09 04:57:09;;;;;;;9.00;8.10;;;;;;;17.42;79.89;155837.56;5063441;28;20451;-85
2023/06/09 04:59:36;;;;;;;10.40;9.40;;;;;;;17.36;80.55;155821.94;5040994;28;20475;-85
2023/06/09 05:02:03;;;;;;;10.70;9.57;;;;;;;17.39;80.16;155829.75;5044031;28;20490;-84
2023/06/09 05:04:33;;;;;;;10.77;9.77;;;;;;;17.38;80.54;155827.13;5058579;28;20459;-84
2023/06/09 05:07:00;;;;;;;9.80;8.80;;;;;;;17.54;80.38;155868.84;5046822;28;20470;-85
2023/06/09 05:09:28;;;;;;;10.40;9.37;;;;;;;17.67;80.10;155901.38;5061887;28;20451;-84
2023/06/09 05:11:55;;;;;;;10.47;9.47;;;;;;;17.86;78.06;155952.16;5063182;28;20869;-84
2023/06/09 05:14:22;;;;;;;10.50;9.50;;;;;;;17.89;77.49;155958.66;5062484;28;20536;-84
2023/06/09 05:16:49;;;;;;;9.67;8.77;;;;;;;17.96;77.78;155978.19;5063028;28;20920;-84
2023/06/09 05:19:16;;;;;;;11.17;10.17;;;;;;;17.95;76.52;155975.56;5065431;28;20901;-84
2023/06/09 05:21:45;;;;;;;9.30;8.40;;;;;;;18.02;77.50;155993.81;5050935;28;20443;-84
2023/06/09 05:24:12;;;;;;;9.60;8.60;;;;;;;18.23;75.79;156048.53;5063663;28;20455;-84
2023/06/09 05:26:40;;;;;;;9.30;8.40;;;;;;;18.32;75.60;156070.63;5063941;28;20455;-84
2023/06/09 05:29:09;;;;;;;9.20;8.30;;;;;;;18.46;75.05;156105.81;5046252;28;20548;-85
2023/06/09 05:31:38;;;;;;;8.83;7.93;;;;;;;18.60;74.59;156142.34;5028119;28;20448;-83
2023/06/09 05:34:07;;;;;;;9.50;8.50;;;;;;;18.69;73.70;156167.06;5061976;28;20451;-84
2023/06/09 05:36:36;;;;;;;10.30;8.17;;;;;;;18.83;73.70;156202.25;5050482;28;20461;-84
2023/06/09 05:39:03;;;;;;;9.13;8.23;;;;;;;19.01;73.16;156247.91;5023276;28;20474;-84
2023/06/09 05:41:29;;;;;;;8.67;7.87;;;;;;;19.25;73.29;156310.41;5057095;28;20439;-84
2023/06/09 05:43:57;;;;;;;9.67;8.77;;;;;;;19.46;72.23;156365.19;5072907;28;20465;-84
2023/06/09 05:46:25;;;;;;;9.43;8.27;;;;;;;19.56;71.01;156391.31;5067458;28;20441;-84
2023/06/09 05:48:52;;;;;;;8.93;8.13;;;;;;;19.77;70.64;156444.75;5044215;28;20458;-84
2023/06/09 05:51:18;;;;;;;8.77;7.97;;;;;;;19.88;69.95;156473.44;5049249;28;20443;-84
2023/06/09 05:53:45;;;;;;;9.10;8.30;;;;;;;20.00;68.56;156504.72;5049217;28;21016;-84
2023/06/09 05:56:15;;;;;;;9.37;8.47;;;;;;;19.89;68.32;156476.03;5047596;28;20439;-84
2023/06/09 05:58:44;;;;;;;7.77;6.97;;;;;;;20.02;69.53;156509.91;5046822;28;20443;-84
2023/06/09 06:01:12;;;;;;;8.83;8.00;;;;;;;20.36;68.49;156597.38;5048825;28;20471;-84
2023/06/09 06:03:41;;;;;;;9.60;8.37;;;;;;;20.59;67.61;156658.69;5046519;28;20481;-82
2023/06/09 06:06:08;;;;;;;8.73;7.93;;;;;;;20.74;66.17;156695.19;5066917;28;20443;-84
2023/06/09 06:08:35;;;;;;;9.00;8.20;;;;;;;20.81;65.74;156713.47;5065031;28;20450;-83
2023/06/09 06:11:01;;;;;;;8.83;8.10;;;;;;;20.70;66.64;156684.78;5060193;28;20474;-82
2023/06/09 06:13:28;;;;;;;9.13;8.13;;;;;;;20.72;66.81;156689.97;5048860;28;20455;-82
2023/06/09 06:15:55;;;;;;;9.50;8.60;;;;;;;20.96;65.55;156753.94;5070376;28;20836;-83
2023/06/09 06:18:22;;;;;;;8.50;7.77;;;;;;;20.99;65.94;156760.44;5050115;28;20462;-84
2023/06/09 06:20:49;;;;;;;9.80;8.80;;;;;;;21.18;64.64;156811.38;5046557;28;21060;-84
2023/06/09 06:23:16;;;;;;;8.80;7.90;;;;;;;21.21;64.62;156817.91;5046716;28;20453;-84
2023/06/09 06:25:42;;;;;;;8.73;7.93;;;;;;;21.22;64.27;156820.53;5046451;28;20542;-85
2023/06/09 06:28:10;;;;;;;8.50;7.70;;;;;;;21.30;65.28;156841.41;5029154;28;20461;-84
2023/06/09 06:30:37;;;;;;;8.67;7.83;;;;;;;21.57;64.16;156911.91;5040295;28;20453;-84
2023/06/09 06:33:04;;;;;;;8.17;7.47;;;;;;;21.70;63.83;156945.84;5058390;28;20458;-85
2023/06/09 06:35:32;;;;;;;7.70;7.00;;;;;;;21.85;63.40;156983.69;5047401;28;21364;-84
2023/06/09 06:37:59;;;;;;;10.23;7.17;;;;;;;22.13;63.16;157055.56;5047359;28;20453;-85
2023/06/09 06:40:27;;;;;;;7.83;7.13;;;;;;;22.27;61.56;157092.13;5047424;28;20474;-84
2023/06/09 06:42:53;;;;;;;8.33;7.63;;;;;;;22.43;61.05;157133.91;5064368;28;20447;-84
2023/06/09 06:45:30;;;;;;;8.87;7.60;;;;;;;22.60;60.20;157178.34;5063787;28;20452;-85
2023/06/09 06:47:56;;;;;;;7.00;6.40;;;;;;;22.60;59.44;157178.34;5063245;28;20479;-84
2023/06/09 06:50:23;;;;;;;7.10;6.50;;;;;;;22.78;59.56;157225.41;5065803;28;20431;-84
2023/06/09 06:52:51;;;;;;;7.90;7.20;;;;;;;22.91;58.70;157258.06;5064255;28;20557;-85
2023/06/09 06:55:17;;;;;;;7.50;6.90;;;;;;;22.99;57.90;157280.28;5035736;28;20466;-85
2023/06/09 06:57:44;;;;;;;6.93;6.33;;;;;;;23.07;57.62;157298.56;5044282;28;20454;-85
2023/06/09 07:00:14;;;;;;;6.87;6.17;;;;;;;22.95;56.02;157268.56;5045248;28;20486;-84
2023/06/09 07:02:41;;;;;;;7.30;6.63;;;;;;;22.94;56.32;157267.25;5047471;28;20500;-86
2023/06/09 07:05:08;;;;;;;6.47;5.87;;;;;;;23.20;54.91;157332.53;5064314;28;20459;-85
2023/06/09 07:07:35;;;;;;;6.47;5.90;;;;;;;23.30;54.94;157360.00;5048911;28;20465;-85
2023/06/09 07:10:03;;;;;;;6.53;5.93;;;;;;;23.24;54.21;157343.03;5036911;28;20455;-85
2023/06/09 07:12:30;;;;;;;6.17;5.37;;;;;;;23.13;52.53;157314.28;5042603;28;20477;-86
2023/06/09 07:14:56;;;;;;;5.63;5.13;;;;;;;23.07;54.13;157298.56;5048378;28;20451;-87
2023/06/09 07:17:23;;;;;;;5.93;5.37;;;;;;;23.00;52.80;157282.94;5037691;28;20528;-87
2023/06/09 07:19:49;;;;;;;6.20;5.67;;;;;;;23.03;52.86;157289.47;5063124;28;20479;-86
2023/06/09 07:22:16;;;;;;;5.10;4.70;;;;;;;22.92;52.94;157260.69;5064825;28;20455;-86
2023/06/09 07:24:43;;;;;;;5.73;5.23;;;;;;;23.22;52.96;157339.06;5060931;28;20554;-86
2023/06/09 07:27:11;;;;;;;6.03;5.53;;;;;;;23.55;52.47;157424.09;5055770;28;20454;-86
2023/06/09 07:29:37;;;;;;;6.93;5.10;;;;;;;23.88;51.72;157510.38;5055354;28;20475;-86
2023/06/09 07:32:05;;;;;;;6.67;6.07;;;;;;;23.78;51.64;157482.91;5065734;28;20455;-87
2023/06/09 07:34:33;;;;;;;5.10;4.70;;;;;;;23.73;52.19;157471.16;5065156;28;20455;-87
2023/06/09 07:37:06;;;;;;;5.80;5.30;;;;;;;23.61;51.69;157439.81;5042885;28;20486;-87
2023/06/09 07:39:35;;;;;;;5.50;5.10;;;;;;;23.76;52.07;157477.69;5035304;28;20455;-86
2023/06/09 07:42:02;;;;;;;5.40;4.90;;;;;;;24.01;50.48;157544.34;5047671;28;20493;-87
2023/06/09 07:44:30;;;;;;;5.80;5.30;;;;;;;24.11;51.69;157569.28;5049358;28;20451;-86
2023/06/09 07:46:57;;;;;;;9.83;5.07;;;;;;;24.48;50.97;157666.06;5051700;28;20802;-87
2023/06/09 07:49:23;;;;;;;5.37;4.87;;;;;;;24.58;50.39;157692.22;5047630;28;20459;-86
2023/06/09 07:51:50;;;;;;;6.77;6.17;;;;;;;24.80;50.79;157749.84;5059331;28;20514;-86
2023/06/09 07:54:17;;;;;;;5.50;5.00;;;;;;;24.85;49.64;157761.59;5047419;28;20466;-87
2023/06/09 07:56:50;;;;;;;6.07;5.47;;;;;;;24.69;48.98;157719.69;5030070;28;20454;-87
2023/06/09 07:59:20;;;;;;;4.97;4.57;;;;;;;24.12;48.94;157573.19;5047844;28;20495;-88
2023/06/09 08:01:52;;;;;;;4.93;4.53;;;;;;;24.13;49.89;157574.50;5061256;28;20516;-87
2023/06/09 08:04:18;;;;;;;6.83;5.47;;;;;;;24.45;51.92;157656.91;5063701;28;20461;-86
2023/06/09 08:06:48;;;;;;;6.47;5.60;;;;;;;24.78;50.19;157743.25;5064285;28;20513;-87
2023/06/09 08:09:15;;;;;;;6.80;6.20;;;;;;;24.87;50.42;157766.84;5038537;28;20470;-87
2023/06/09 08:11:42;;;;;;;5.80;5.30;;;;;;;25.03;49.52;157808.69;5062344;28;20458;-87
2023/06/09 08:14:09;;;;;;;6.60;5.47;;;;;;;25.02;49.38;157804.78;5059989;28;20981;-87
2023/06/09 08:16:36;;;;;;;6.20;5.60;;;;;;;24.97;49.87;157793.00;5043801;28;20464;-87
2023/06/09 08:19:04;;;;;;;5.03;4.63;;;;;;;25.19;49.51;157850.59;5046998;28;20455;-87
2023/06/09 08:21:30;;;;;;;7.20;6.53;;;;;;;25.20;49.09;157851.91;5059538;28;20554;-87
2023/06/09 08:23:57;;;;;;;5.80;5.30;;;;;;;25.10;48.95;157827.00;5052470;28;20455;-88
2023/06/09 08:26:23;;;;;;;6.20;5.70;;;;;;;25.35;49.07;157892.47;5061978;28;20975;-87
2023/06/09 08:28:50;;;;;;;6.17;5.50;;;;;;;25.57;48.35;157947.47;5025724;28;20573;-88
2023/06/09 08:31:17;;;;;;;5.73;5.23;;;;;;;25.76;48.55;157998.50;5058335;28;20482;-87
2023/06/09 08:33:44;;;;;;;7.30;6.63;;;;;;;25.62;48.65;157961.88;5038142;28;20450;-87
2023/06/09 08:36:12;;;;;;;7.00;6.30;;;;;;;25.66;50.68;157971.00;5037486;28;20466;-87
2023/06/09 08:38:39;;;;;;;6.70;6.10;;;;;;;25.62;49.16;157961.88;5058372;28;20849;-87
2023/06/09 08:41:08;;;;;;;7.47;6.80;;;;;;;25.82;48.32;158012.91;5060901;28;20995;-87
2023/06/09 08:43:35;;;;;;;7.10;6.50;;;;;;;25.80;48.91;158009.00;5058678;28;20457;-88
2023/06/09 08:46:04;;;;;;;6.73;6.20;;;;;;;25.96;47.71;158049.59;5061290;28;20845;-87
2023/06/09 08:48:33;;;;;;;7.23;6.63;;;;;;;25.64;49.58;157965.78;5055891;28;20466;-87
2023/06/09 08:51:00;;;;;;;6.57;5.97;;;;;;;25.46;49.16;157920.00;5046989;28;20530;-87
2023/06/09 08:53:28;;;;;;;6.40;5.80;;;;;;;25.49;49.58;157926.53;5048446;28;20588;-87
2023/06/09 08:55:55;;;;;;;5.20;4.80;;;;;;;25.59;48.34;157954.03;5060452;28;20489;-82
2023/06/09 08:58:22;;;;;;;5.30;4.80;;;;;;;25.65;48.86;157968.44;5042869;28;20465;-79
2023/06/09 09:00:49;;;;;;;4.93;4.53;;;;;;;25.94;46.14;158044.34;5035038;28;20541;-79
2023/06/09 09:03:17;;;;;;;4.70;4.30;;;;;;;26.15;46.48;158098.06;5040202;28;20470;-79
2023/06/09 09:05:44;;;;;;;4.80;4.37;;;;;;;26.03;45.99;158069.22;5052934;28;20491;-79
2023/06/09 09:08:11;;;;;;;4.43;4.13;;;;;;;26.12;45.87;158090.16;5057737;28;20510;-79
2023/06/09 09:10:41;;;;;;;4.60;4.20;;;;;;;26.34;46.02;158147.84;5039135;28;22116;-79
2023/06/09 09:13:09;;;;;;;4.93;4.53;;;;;;;26.00;46.55;158061.34;5037760;28;20795;-79
2023/06/09 09:15:37;;;;;;;5.07;4.67;;;;;;;26.23;45.91;158120.34;5031724;28;20489;-79
2023/06/09 09:18:06;;;;;;;4.63;4.23;;;;;;;26.31;45.62;158139.97;5055016;28;20481;-79
2023/06/09 09:20:34;;;;;;;4.90;4.50;;;;;;;26.49;46.04;158188.44;5041332;28;20568;-79
2023/06/09 09:23:01;;;;;;;5.07;4.67;;;;;;;26.70;45.52;158240.81;5042003;28;20454;-76
2023/06/09 09:25:29;;;;;;;5.43;5.03;;;;;;;26.82;44.35;158272.31;5040604;28;20455;-79
2023/06/09 09:28:02;;;;;;;5.30;4.90;;;;;;;26.49;45.81;158188.44;5057329;28;21027;-78
2023/06/09 09:30:49;;;;;;;4.83;4.43;;;;;;;26.06;46.62;158075.75;5061942;28;20506;-78
2023/06/09 09:33:18;;;;;;;5.70;5.20;;;;;;;25.93;47.39;158043.03;5047411;28;20471;-78
2023/06/09 09:35:46;;;;;;;5.30;4.83;;;;;;;25.97;48.23;158053.47;5040527;28;20887;-78
2023/06/09 09:38:16;;;;;;;4.70;4.30;;;;;;;26.13;45.74;158094.16;5053252;28;20549;-79
2023/06/09 09:40:45;;;;;;;5.30;4.80;;;;;;;26.16;45.00;158101.97;5037056;28;20471;-79
2023/06/09 09:43:13;;;;;;;5.33;4.93;;;;;;;26.22;45.29;158117.72;5058321;28;20478;-79
2023/06/09 09:45:42;;;;;;;5.00;4.57;;;;;;;26.49;45.57;158188.44;5041891;28;20459;-79
2023/06/09 09:48:10;;;;;;;4.47;4.17;;;;;;;26.63;46.06;158222.50;5040584;28;20805;-79
2023/06/09 09:50:37;;;;;;;4.43;4.10;;;;;;;26.61;44.65;158219.84;5034131;28;20454;-79
2023/06/09 09:53:04;;;;;;;4.40;4.10;;;;;;;26.53;44.72;158198.91;5058799;28;20449;-79
2023/06/09 09:55:31;;;;;;;4.70;4.30;;;;;;;26.45;44.64;158177.94;5037892;28;20550;-78
2023/06/09 09:57:58;;;;;;;4.47;4.07;;;;;;;26.27;44.76;158130.81;5043185;28;20438;-79
2023/06/09 10:00:27;;;;;;;4.60;4.20;;;;;;;26.18;44.83;158107.25;5034051;28;20474;-78
2023/06/09 10:02:56;;;;;;;4.43;4.03;;;;;;;26.25;44.88;158125.56;5039441;28;20858;-79
2023/06/09 10:05:23;;;;;;;3.83;3.47;;;;;;;25.91;44.69;158036.50;5033170;28;20451;-79
2023/06/09 10:07:51;;;;;;;3.97;3.60;;;;;;;26.03;44.46;158067.88;5031932;28;21000;-79
2023/06/09 10:10:19;;;;;;;4.10;3.80;;;;;;;25.90;44.04;158033.84;5047801;28;20552;-79
2023/06/09 10:12:46;;;;;;;4.00;3.60;;;;;;;25.53;44.63;157936.97;5038473;28;20451;-78
2023/06/09 10:15:13;;;;;;;4.50;4.10;;;;;;;25.53;45.54;157938.31;5045664;28;20462;-79
2023/06/09 10:17:42;;;;;;;4.10;3.80;;;;;;;25.61;44.70;157957.94;5034702;28;20458;-79
2023/06/09 10:20:10;;;;;;;4.53;4.13;;;;;;;25.62;44.22;157960.56;5045091;28;20443;-79
2023/06/09 10:22:37;;;;;;;4.70;4.20;;;;;;;25.85;44.31;158022.09;5054209;28;20484;-79
2023/06/09 10:25:04;;;;;;;3.70;3.40;;;;;;;26.04;42.95;158070.53;5058324;28;20455;-79
2023/06/09 10:27:31;;;;;;;5.30;4.10;;;;;;;26.25;43.67;158125.56;5056045;28;20477;-79
2023/06/09 10:29:58;;;;;;;4.30;3.90;;;;;;;26.29;43.91;158136.03;5047197;28;20475;-79
2023/06/09 10:32:27;;;;;;;4.10;3.80;;;;;;;25.91;42.89;158036.50;5038267;28;20977;-79
2023/06/09 10:34:57;;;;;;;4.07;3.67;;;;;;;25.92;43.28;158040.41;5039207;28;20461;-79
2023/06/09 10:37:30;;;;;;;4.03;3.73;;;;;;;25.94;42.68;158044.34;5040679;28;20443;-78
2023/06/09 10:40:02;;;;;;;4.13;3.83;;;;;;;25.88;43.45;158028.63;5039503;28;20557;-79
2023/06/09 10:42:35;;;;;;;3.50;3.20;;;;;;;25.73;43.55;157990.69;5054415;28;20472;-78
2023/06/09 10:45:08;;;;;;;3.83;3.53;;;;;;;25.53;44.15;157936.97;5050076;28;20451;-78
2023/06/09 10:47:43;;;;;;;4.30;4.00;;;;;;;25.77;44.35;158001.13;5059307;28;20524;-78
2023/06/09 10:50:23;;;;;;;4.00;3.70;;;;;;;25.68;44.14;157976.28;5031776;28;20550;-79
2023/06/09 10:52:52;;;;;;;5.57;3.80;;;;;;;25.72;43.70;157986.72;5034254;28;20446;-79
2023/06/09 10:55:21;;;;;;;4.00;3.63;;;;;;;25.87;43.67;158026.00;5052962;28;20455;-79
2023/06/09 10:57:48;;;;;;;4.70;3.40;;;;;;;25.84;43.55;158018.19;5034924;28;20458;-78
2023/06/09 11:00:15;;;;;;;4.00;3.70;;;;;;;25.92;42.75;158039.13;5039368;28;20466;-78
2023/06/09 11:02:51;;;;;;;3.67;3.37;;;;;;;25.89;43.00;158031.25;5039158;28;20997;-78
2023/06/09 11:05:20;;;;;;;4.07;3.30;;;;;;;25.81;43.09;158011.63;5065033;28;20892;-78
2023/06/09 11:08:04;;;;;;;3.73;3.33;;;;;;;25.70;42.79;157982.81;5060565;28;20452;-78
2023/06/09 11:10:31;;;;;;;3.53;3.23;;;;;;;25.53;42.59;157936.97;5041644;28;20972;-78
2023/06/09 11:12:57;;;;;;;3.17;2.83;;;;;;;25.79;42.19;158005.03;5031628;28;20958;-78
2023/06/09 11:15:25;;;;;;;3.40;3.10;;;;;;;25.87;42.03;158026.00;5045431;28;20550;-78
2023/06/09 11:17:52;;;;;;;3.43;3.13;;;;;;;25.95;41.03;158046.94;5038871;28;20450;-78
2023/06/09 11:20:22;;;;;;;4.50;2.37;;;;;;;25.92;40.15;158039.13;5054703;28;20453;-79
2023/06/09 11:23:00;;;;;;;3.83;3.53;;;;;;;25.89;41.72;158031.25;5049645;28;20467;-78
2023/06/09 11:25:42;;;;;;;4.70;3.83;;;;;;;25.67;42.05;157973.66;5048126;28;20498;-78